sensor_id;sensor_type;location;lat;lon;timestamp;temperature;humidity
14985;DHT22;7588;62.368;25.902;2022-12-20T00:00:49;-3.50;99.90
14985;DHT22;7588;62.368;25.902;2022-12-20T00:03:15;-3.50;99.90
14985;DHT22;7588;62.368;25.902;2022-12-20T00:05:42;-3.40;99.90
14985;DHT22;7588;62.368;25.902;2022-12-20T00:08:09;-3.40;99.90
14985;DHT22;7588;62.368;25.902;2022-12-20T00:10:39;-3.40;99.90
14985;DHT22;7588;62.368;25.902;2022-12-20T00:13:06;-3.40;99.90
14985;DHT22;7588;62.368;25.902;2022-12-20T00:15:32;-3.40;99.90
14985;DHT22;7588;62.368;25.902;2022-12-20T00:17:58;-3.40;99.90
14985;DHT22;7588;62.368;25.902;2022-12-20T00:20:24;-3.40;99.90
14985;DHT22;7588;62.368;25.902;2022-12-20T00:22:51;-3.40;99.90
14985;DHT22;7588;62.368;25.902;2022-12-20T00:25:16;-3.40;99.90
14985;DHT22;7588;62.368;25.902;2022-12-20T00:27:43;-3.30;99.90
14985;DHT22;7588;62.368;25.902;2022-12-20T00:30:09;-3.30;99.90
14985;DHT22;7588;62.368;25.902;2022-12-20T00:32:35;-3.30;99.90
14985;DHT22;7588;62.368;25.902;2022-12-20T00:35:00;-3.30;99.90
14985;DHT22;7588;62.368;25.902;2022-12-20T00:37:26;-3.30;99.90
14985;DHT22;7588;62.368;25.902;2022-12-20T00:39:52;-3.30;99.90
14985;DHT22;7588;62.368;25.902;2022-12-20T00:42:18;-3.30;99.90
14985;DHT22;7588;62.368;25.902;2022-12-20T00:44:43;-3.20;99.90
14985;DHT22;7588;62.368;25.902;2022-12-20T00:47:09;-3.20;99.90
14985;DHT22;7588;62.368;25.902;2022-12-20T00:49:35;-3.10;99.90
14985;DHT22;7588;62.368;25.902;2022-12-20T00:52:00;-3.00;99.90
14985;DHT22;7588;62.368;25.902;2022-12-20T00:54:26;-3.00;99.90
14985;DHT22;7588;62.368;25.902;2022-12-20T00:56:52;-3.00;99.90
14985;DHT22;7588;62.368;25.902;2022-12-20T00:59:17;-3.10;99.90
14985;DHT22;7588;62.368;25.902;2022-12-20T01:01:44;-3.10;99.90
14985;DHT22;7588;62.368;25.902;2022-12-20T01:04:11;-3.00;99.90
14985;DHT22;7588;62.368;25.902;2022-12-20T01:06:37;-3.00;99.90
14985;DHT22;7588;62.368;25.902;2022-12-20T01:09:02;-2.90;99.90
14985;DHT22;7588;62.368;25.902;2022-12-20T01:11:31;-2.90;99.90
14985;DHT22;7588;62.368;25.902;2022-12-20T01:14:01;-2.90;99.90
14985;DHT22;7588;62.368;25.902;2022-12-20T01:16:38;-2.90;99.90
14985;DHT22;7588;62.368;25.902;2022-12-20T01:19:05;-2.90;99.90
14985;DHT22;7588;62.368;25.902;2022-12-20T01:21:31;-2.80;99.90
14985;DHT22;7588;62.368;25.902;2022-12-20T01:23:57;-2.80;99.90
14985;DHT22;7588;62.368;25.902;2022-12-20T01:26:25;-2.80;99.90
14985;DHT22;7588;62.368;25.902;2022-12-20T01:28:54;-2.80;99.90
14985;DHT22;7588;62.368;25.902;2022-12-20T01:31:20;-2.70;99.90
14985;DHT22;7588;62.368;25.902;2022-12-20T01:33:47;-2.70;99.90
14985;DHT22;7588;62.368;25.902;2022-12-20T01:36:25;-2.70;99.90
14985;DHT22;7588;62.368;25.902;2022-12-20T01:39:16;-2.70;99.90
14985;DHT22;7588;62.368;25.902;2022-12-20T01:41:43;-2.70;99.90
14985;DHT22;7588;62.368;25.902;2022-12-20T01:46:46;-2.70;99.90
14985;DHT22;7588;62.368;25.902;2022-12-20T01:49:39;-2.70;99.90
14985;DHT22;7588;62.368;25.902;2022-12-20T01:52:24;-2.70;99.90
14985;DHT22;7588;62.368;25.902;2022-12-20T01:54:59;-2.70;99.90
14985;DHT22;7588;62.368;25.902;2022-12-20T01:57:41;-2.70;99.90
14985;DHT22;7588;62.368;25.902;2022-12-20T02:00:10;-2.70;99.90
14985;DHT22;7588;62.368;25.902;2022-12-20T02:02:36;-2.70;99.90
14985;DHT22;7588;62.368;25.902;2022-12-20T02:05:02;-2.70;99.90
14985;DHT22;7588;62.368;25.902;2022-12-20T02:07:30;-2.70;99.90
14985;DHT22;7588;62.368;25.902;2022-12-20T02:09:59;-2.70;99.90
14985;DHT22;7588;62.368;25.902;2022-12-20T02:12:34;-2.60;99.90
14985;DHT22;7588;62.368;25.902;2022-12-20T02:15:31;-2.60;99.90
14985;DHT22;7588;62.368;25.902;2022-12-20T02:21:13;-2.60;99.90
14985;DHT22;7588;62.368;25.902;2022-12-20T02:26:51;-2.50;99.90
14985;DHT22;7588;62.368;25.902;2022-12-20T02:34:32;-2.50;99.90
14985;DHT22;7588;62.368;25.902;2022-12-20T02:36:59;-2.50;99.90
14985;DHT22;7588;62.368;25.902;2022-12-20T02:39:27;-2.50;99.90
14985;DHT22;7588;62.368;25.902;2022-12-20T02:41:57;-2.50;99.90
14985;DHT22;7588;62.368;25.902;2022-12-20T02:44:26;-2.50;99.90
14985;DHT22;7588;62.368;25.902;2022-12-20T02:47:17;-2.50;99.90
14985;DHT22;7588;62.368;25.902;2022-12-20T02:49:45;-2.40;99.90
14985;DHT22;7588;62.368;25.902;2022-12-20T02:52:12;-2.50;99.90
14985;DHT22;7588;62.368;25.902;2022-12-20T02:54:39;-2.40;99.90
14985;DHT22;7588;62.368;25.902;2022-12-20T02:57:15;-2.40;99.90
14985;DHT22;7588;62.368;25.902;2022-12-20T02:59:54;-2.40;99.90
14985;DHT22;7588;62.368;25.902;2022-12-20T03:02:23;-2.30;99.90
14985;DHT22;7588;62.368;25.902;2022-12-20T03:04:50;-2.30;99.90
14985;DHT22;7588;62.368;25.902;2022-12-20T03:07:16;-2.30;99.90
14985;DHT22;7588;62.368;25.902;2022-12-20T03:09:43;-2.30;99.90
14985;DHT22;7588;62.368;25.902;2022-12-20T03:12:11;-2.30;99.90
14985;DHT22;7588;62.368;25.902;2022-12-20T03:14:37;-2.30;99.90
14985;DHT22;7588;62.368;25.902;2022-12-20T03:17:04;-2.30;99.90
14985;DHT22;7588;62.368;25.902;2022-12-20T03:19:30;-2.30;99.90
14985;DHT22;7588;62.368;25.902;2022-12-20T03:21:56;-2.40;99.90
14985;DHT22;7588;62.368;25.902;2022-12-20T03:24:22;-2.40;99.90
14985;DHT22;7588;62.368;25.902;2022-12-20T03:26:48;-2.40;99.90
14985;DHT22;7588;62.368;25.902;2022-12-20T03:29:13;-2.40;99.90
14985;DHT22;7588;62.368;25.902;2022-12-20T03:31:39;-2.40;99.90
14985;DHT22;7588;62.368;25.902;2022-12-20T03:34:05;-2.40;99.90
14985;DHT22;7588;62.368;25.902;2022-12-20T03:36:31;-2.40;99.90
14985;DHT22;7588;62.368;25.902;2022-12-20T03:38:57;-2.40;99.90
14985;DHT22;7588;62.368;25.902;2022-12-20T03:41:23;-2.30;99.90
14985;DHT22;7588;62.368;25.902;2022-12-20T03:43:49;-2.30;99.90
14985;DHT22;7588;62.368;25.902;2022-12-20T03:46:15;-2.30;99.90
14985;DHT22;7588;62.368;25.902;2022-12-20T03:48:41;-2.40;99.90
14985;DHT22;7588;62.368;25.902;2022-12-20T03:51:07;-2.30;99.90
14985;DHT22;7588;62.368;25.902;2022-12-20T03:53:33;-2.30;99.90
14985;DHT22;7588;62.368;25.902;2022-12-20T03:55:58;-2.20;99.90
14985;DHT22;7588;62.368;25.902;2022-12-20T03:58:24;-2.20;99.90
14985;DHT22;7588;62.368;25.902;2022-12-20T04:00:50;-2.10;99.90
14985;DHT22;7588;62.368;25.902;2022-12-20T04:03:16;-2.10;99.90
14985;DHT22;7588;62.368;25.902;2022-12-20T04:05:41;-2.10;99.90
14985;DHT22;7588;62.368;25.902;2022-12-20T04:08:07;-2.20;99.90
14985;DHT22;7588;62.368;25.902;2022-12-20T04:10:36;-2.10;99.90
14985;DHT22;7588;62.368;25.902;2022-12-20T04:13:22;-2.20;99.90
14985;DHT22;7588;62.368;25.902;2022-12-20T04:15:50;-2.20;99.90
14985;DHT22;7588;62.368;25.902;2022-12-20T04:18:16;-2.30;99.90
14985;DHT22;7588;62.368;25.902;2022-12-20T04:20:41;-2.30;99.90
14985;DHT22;7588;62.368;25.902;2022-12-20T04:23:07;-2.30;99.90
14985;DHT22;7588;62.368;25.902;2022-12-20T04:25:33;-2.30;99.90
14985;DHT22;7588;62.368;25.902;2022-12-20T04:27:58;-2.40;99.90
14985;DHT22;7588;62.368;25.902;2022-12-20T04:30:24;-2.30;99.90
14985;DHT22;7588;62.368;25.902;2022-12-20T04:32:50;-2.20;99.90
14985;DHT22;7588;62.368;25.902;2022-12-20T04:35:19;-2.20;99.90
14985;DHT22;7588;62.368;25.902;2022-12-20T04:37:45;-2.20;99.90
14985;DHT22;7588;62.368;25.902;2022-12-20T04:40:12;-2.10;99.90
14985;DHT22;7588;62.368;25.902;2022-12-20T04:42:38;-2.20;99.90
14985;DHT22;7588;62.368;25.902;2022-12-20T04:45:04;-2.20;99.90
14985;DHT22;7588;62.368;25.902;2022-12-20T04:47:30;-2.30;99.90
14985;DHT22;7588;62.368;25.902;2022-12-20T04:49:56;-2.30;99.90
14985;DHT22;7588;62.368;25.902;2022-12-20T04:52:21;-2.30;99.90
14985;DHT22;7588;62.368;25.902;2022-12-20T04:55:06;-2.30;99.90
14985;DHT22;7588;62.368;25.902;2022-12-20T04:57:32;-2.30;99.90
14985;DHT22;7588;62.368;25.902;2022-12-20T04:59:58;-2.30;99.90
14985;DHT22;7588;62.368;25.902;2022-12-20T05:02:23;-2.30;99.90
14985;DHT22;7588;62.368;25.902;2022-12-20T05:04:49;-2.30;99.90
14985;DHT22;7588;62.368;25.902;2022-12-20T05:07:15;-2.30;99.90
14985;DHT22;7588;62.368;25.902;2022-12-20T05:09:40;-2.30;99.90
14985;DHT22;7588;62.368;25.902;2022-12-20T05:12:06;-2.30;99.90
14985;DHT22;7588;62.368;25.902;2022-12-20T05:14:32;-2.20;99.90
14985;DHT22;7588;62.368;25.902;2022-12-20T05:16:58;-2.20;99.90
14985;DHT22;7588;62.368;25.902;2022-12-20T05:19:23;-2.10;99.90
14985;DHT22;7588;62.368;25.902;2022-12-20T05:21:49;-2.10;99.90
14985;DHT22;7588;62.368;25.902;2022-12-20T05:24:33;-2.10;99.90
14985;DHT22;7588;62.368;25.902;2022-12-20T05:27:17;-2.10;99.90
14985;DHT22;7588;62.368;25.902;2022-12-20T05:29:43;-2.20;99.90
14985;DHT22;7588;62.368;25.902;2022-12-20T05:32:08;-2.20;99.90
14985;DHT22;7588;62.368;25.902;2022-12-20T05:34:34;-2.10;99.90
14985;DHT22;7588;62.368;25.902;2022-12-20T05:37:00;-2.10;99.90
14985;DHT22;7588;62.368;25.902;2022-12-20T05:39:26;-2.10;99.90
14985;DHT22;7588;62.368;25.902;2022-12-20T05:41:52;-2.10;99.90
14985;DHT22;7588;62.368;25.902;2022-12-20T05:44:18;-2.10;99.90
14985;DHT22;7588;62.368;25.902;2022-12-20T05:46:44;-2.10;99.90
14985;DHT22;7588;62.368;25.902;2022-12-20T05:49:10;-2.10;99.90
14985;DHT22;7588;62.368;25.902;2022-12-20T05:51:36;-2.10;99.90
14985;DHT22;7588;62.368;25.902;2022-12-20T05:54:01;-2.10;99.90
14985;DHT22;7588;62.368;25.902;2022-12-20T05:56:27;-2.10;99.90
14985;DHT22;7588;62.368;25.902;2022-12-20T05:58:53;-2.10;99.90
14985;DHT22;7588;62.368;25.902;2022-12-20T06:01:19;-2.00;99.90
14985;DHT22;7588;62.368;25.902;2022-12-20T06:03:45;-2.00;99.90
14985;DHT22;7588;62.368;25.902;2022-12-20T06:06:11;-2.00;99.90
14985;DHT22;7588;62.368;25.902;2022-12-20T06:08:36;-2.00;99.90
14985;DHT22;7588;62.368;25.902;2022-12-20T06:11:02;-2.00;99.90
14985;DHT22;7588;62.368;25.902;2022-12-20T06:13:29;-2.00;99.90
14985;DHT22;7588;62.368;25.902;2022-12-20T06:15:55;-2.00;99.90
14985;DHT22;7588;62.368;25.902;2022-12-20T06:18:21;-2.00;99.90
14985;DHT22;7588;62.368;25.902;2022-12-20T06:20:51;-2.00;99.90
14985;DHT22;7588;62.368;25.902;2022-12-20T06:23:17;-1.90;99.90
14985;DHT22;7588;62.368;25.902;2022-12-20T06:25:43;-2.00;99.90
14985;DHT22;7588;62.368;25.902;2022-12-20T06:28:09;-2.00;99.90
14985;DHT22;7588;62.368;25.902;2022-12-20T06:30:35;-1.90;99.90
14985;DHT22;7588;62.368;25.902;2022-12-20T06:33:01;-1.90;99.90
14985;DHT22;7588;62.368;25.902;2022-12-20T06:35:28;-1.90;99.90
14985;DHT22;7588;62.368;25.902;2022-12-20T06:37:54;-1.90;99.90
14985;DHT22;7588;62.368;25.902;2022-12-20T06:40:20;-1.90;99.90
14985;DHT22;7588;62.368;25.902;2022-12-20T06:42:45;-1.90;99.90
14985;DHT22;7588;62.368;25.902;2022-12-20T06:45:11;-1.90;99.90
14985;DHT22;7588;62.368;25.902;2022-12-20T06:47:37;-1.90;99.90
14985;DHT22;7588;62.368;25.902;2022-12-20T06:50:04;-1.80;99.90
14985;DHT22;7588;62.368;25.902;2022-12-20T06:52:30;-1.90;99.90
14985;DHT22;7588;62.368;25.902;2022-12-20T06:54:56;-1.90;99.90
14985;DHT22;7588;62.368;25.902;2022-12-20T06:57:21;-1.90;99.90
14985;DHT22;7588;62.368;25.902;2022-12-20T06:59:47;-1.90;99.90
14985;DHT22;7588;62.368;25.902;2022-12-20T07:02:13;-1.90;99.90
14985;DHT22;7588;62.368;25.902;2022-12-20T07:04:39;-1.90;99.90
14985;DHT22;7588;62.368;25.902;2022-12-20T07:07:05;-1.90;99.90
14985;DHT22;7588;62.368;25.902;2022-12-20T07:09:31;-1.90;99.90
14985;DHT22;7588;62.368;25.902;2022-12-20T07:11:57;-1.90;99.90
14985;DHT22;7588;62.368;25.902;2022-12-20T07:14:23;-1.80;99.90
14985;DHT22;7588;62.368;25.902;2022-12-20T07:16:48;-1.80;99.90
14985;DHT22;7588;62.368;25.902;2022-12-20T07:19:14;-1.80;99.90
14985;DHT22;7588;62.368;25.902;2022-12-20T07:21:41;-1.80;99.90
14985;DHT22;7588;62.368;25.902;2022-12-20T07:24:07;-1.80;99.90
14985;DHT22;7588;62.368;25.902;2022-12-20T07:26:33;-1.80;99.90
14985;DHT22;7588;62.368;25.902;2022-12-20T07:28:59;-1.80;99.90
14985;DHT22;7588;62.368;25.902;2022-12-20T07:31:25;-1.80;99.90
14985;DHT22;7588;62.368;25.902;2022-12-20T07:33:50;-1.80;99.90
14985;DHT22;7588;62.368;25.902;2022-12-20T07:36:16;-1.80;99.90
14985;DHT22;7588;62.368;25.902;2022-12-20T07:38:42;-1.80;99.90
14985;DHT22;7588;62.368;25.902;2022-12-20T07:41:09;-1.70;99.90
14985;DHT22;7588;62.368;25.902;2022-12-20T07:43:36;-1.70;99.90
14985;DHT22;7588;62.368;25.902;2022-12-20T07:46:02;-1.70;99.90
14985;DHT22;7588;62.368;25.902;2022-12-20T07:48:28;-1.70;99.90
14985;DHT22;7588;62.368;25.902;2022-12-20T07:50:59;-1.70;99.90
14985;DHT22;7588;62.368;25.902;2022-12-20T07:53:28;-1.80;99.90
14985;DHT22;7588;62.368;25.902;2022-12-20T07:55:55;-1.80;99.90
14985;DHT22;7588;62.368;25.902;2022-12-20T07:58:21;-1.80;99.90
14985;DHT22;7588;62.368;25.902;2022-12-20T08:00:47;-1.70;99.90
14985;DHT22;7588;62.368;25.902;2022-12-20T08:03:22;-1.70;99.90
14985;DHT22;7588;62.368;25.902;2022-12-20T08:05:52;-1.70;99.90
14985;DHT22;7588;62.368;25.902;2022-12-20T08:08:20;-1.70;99.90
14985;DHT22;7588;62.368;25.902;2022-12-20T08:10:47;-1.70;99.90
14985;DHT22;7588;62.368;25.902;2022-12-20T08:13:14;-1.70;99.90
14985;DHT22;7588;62.368;25.902;2022-12-20T08:15:40;-1.70;99.90
14985;DHT22;7588;62.368;25.902;2022-12-20T08:18:05;-1.60;99.90
14985;DHT22;7588;62.368;25.902;2022-12-20T08:20:32;-1.60;99.90
14985;DHT22;7588;62.368;25.902;2022-12-20T08:22:57;-1.60;99.90
14985;DHT22;7588;62.368;25.902;2022-12-20T08:25:23;-1.60;99.90
14985;DHT22;7588;62.368;25.902;2022-12-20T08:27:49;-1.60;99.90
14985;DHT22;7588;62.368;25.902;2022-12-20T08:30:15;-1.60;99.90
14985;DHT22;7588;62.368;25.902;2022-12-20T08:32:41;-1.60;99.90
14985;DHT22;7588;62.368;25.902;2022-12-20T08:35:07;-1.60;99.90
14985;DHT22;7588;62.368;25.902;2022-12-20T08:37:33;-1.50;99.90
14985;DHT22;7588;62.368;25.902;2022-12-20T08:39:59;-1.60;99.90
14985;DHT22;7588;62.368;25.902;2022-12-20T08:42:26;-1.50;99.90
14985;DHT22;7588;62.368;25.902;2022-12-20T08:44:52;-1.50;99.90
14985;DHT22;7588;62.368;25.902;2022-12-20T08:47:17;-1.50;99.90
14985;DHT22;7588;62.368;25.902;2022-12-20T08:49:43;-1.50;99.90
14985;DHT22;7588;62.368;25.902;2022-12-20T08:52:09;-1.40;99.90
14985;DHT22;7588;62.368;25.902;2022-12-20T08:54:35;-1.50;99.90
14985;DHT22;7588;62.368;25.902;2022-12-20T08:57:00;-1.50;99.90
14985;DHT22;7588;62.368;25.902;2022-12-20T08:59:26;-1.60;99.90
14985;DHT22;7588;62.368;25.902;2022-12-20T09:01:52;-1.60;99.90
14985;DHT22;7588;62.368;25.902;2022-12-20T09:04:20;-1.50;99.90
14985;DHT22;7588;62.368;25.902;2022-12-20T09:06:46;-1.60;99.90
14985;DHT22;7588;62.368;25.902;2022-12-20T09:09:11;-1.50;99.90
14985;DHT22;7588;62.368;25.902;2022-12-20T09:11:37;-1.60;99.90
14985;DHT22;7588;62.368;25.902;2022-12-20T09:14:03;-1.50;99.90
14985;DHT22;7588;62.368;25.902;2022-12-20T09:16:31;-1.60;99.90
14985;DHT22;7588;62.368;25.902;2022-12-20T09:18:59;-1.50;99.90
14985;DHT22;7588;62.368;25.902;2022-12-20T09:21:25;-1.50;99.90
14985;DHT22;7588;62.368;25.902;2022-12-20T09:23:54;-1.50;99.90
14985;DHT22;7588;62.368;25.902;2022-12-20T09:26:21;-1.50;99.90
14985;DHT22;7588;62.368;25.902;2022-12-20T09:28:48;-1.50;99.90
14985;DHT22;7588;62.368;25.902;2022-12-20T09:31:16;-1.50;99.90
14985;DHT22;7588;62.368;25.902;2022-12-20T09:33:43;-1.50;99.90
14985;DHT22;7588;62.368;25.902;2022-12-20T09:36:14;-1.50;99.90
14985;DHT22;7588;62.368;25.902;2022-12-20T09:38:41;-1.50;99.90
14985;DHT22;7588;62.368;25.902;2022-12-20T09:41:15;-1.50;99.90
14985;DHT22;7588;62.368;25.902;2022-12-20T09:43:42;-1.50;99.90
14985;DHT22;7588;62.368;25.902;2022-12-20T09:46:11;-1.50;99.90
14985;DHT22;7588;62.368;25.902;2022-12-20T09:48:39;-1.50;99.90
14985;DHT22;7588;62.368;25.902;2022-12-20T09:56:44;-1.50;99.90
14985;DHT22;7588;62.368;25.902;2022-12-20T09:59:13;-1.50;99.90
14985;DHT22;7588;62.368;25.902;2022-12-20T10:01:44;-1.60;99.90
14985;DHT22;7588;62.368;25.902;2022-12-20T10:04:30;-1.60;99.90
14985;DHT22;7588;62.368;25.902;2022-12-20T10:07:37;-1.60;99.90
14985;DHT22;7588;62.368;25.902;2022-12-20T10:10:21;-1.60;99.90
14985;DHT22;7588;62.368;25.902;2022-12-20T10:23:38;-1.60;99.90
14985;DHT22;7588;62.368;25.902;2022-12-20T10:26:09;-1.60;99.90
14985;DHT22;7588;62.368;25.902;2022-12-20T10:28:35;-1.70;99.90
14985;DHT22;7588;62.368;25.902;2022-12-20T10:31:05;-1.60;99.90
14985;DHT22;7588;62.368;25.902;2022-12-20T10:33:32;-1.60;99.90
14985;DHT22;7588;62.368;25.902;2022-12-20T10:36:19;-1.60;99.90
14985;DHT22;7588;62.368;25.902;2022-12-20T10:39:00;-1.60;99.90
14985;DHT22;7588;62.368;25.902;2022-12-20T10:44:04;-1.60;99.90
14985;DHT22;7588;62.368;25.902;2022-12-20T10:46:44;-1.60;99.90
14985;DHT22;7588;62.368;25.902;2022-12-20T10:54:35;-1.50;99.90
14985;DHT22;7588;62.368;25.902;2022-12-20T10:57:23;-1.50;99.90
14985;DHT22;7588;62.368;25.902;2022-12-20T11:02:23;-1.50;99.90
14985;DHT22;7588;62.368;25.902;2022-12-20T11:07:34;-1.60;99.90
14985;DHT22;7588;62.368;25.902;2022-12-20T11:12:56;-1.60;99.90
14985;DHT22;7588;62.368;25.902;2022-12-20T11:15:25;-1.60;99.90
14985;DHT22;7588;62.368;25.902;2022-12-20T11:18:59;-1.60;99.90
14985;DHT22;7588;62.368;25.902;2022-12-20T11:23:44;-1.70;99.90
14985;DHT22;7588;62.368;25.902;2022-12-20T11:32:10;-1.80;99.90
14985;DHT22;7588;62.368;25.902;2022-12-20T11:37:24;-1.80;99.90
14985;DHT22;7588;62.368;25.902;2022-12-20T11:48:28;-1.80;99.90
14985;DHT22;7588;62.368;25.902;2022-12-20T11:56:45;-2.00;99.90
14985;DHT22;7588;62.368;25.902;2022-12-20T12:01:55;-2.00;99.90
14985;DHT22;7588;62.368;25.902;2022-12-20T12:04:26;-2.00;99.90
14985;DHT22;7588;62.368;25.902;2022-12-20T12:07:19;-2.00;99.90
14985;DHT22;7588;62.368;25.902;2022-12-20T12:17:57;-2.20;99.90
14985;DHT22;7588;62.368;25.902;2022-12-20T12:23:23;-2.20;99.90
14985;DHT22;7588;62.368;25.902;2022-12-20T12:25:51;-2.30;99.90
14985;DHT22;7588;62.368;25.902;2022-12-20T12:28:18;-2.40;99.90
14985;DHT22;7588;62.368;25.902;2022-12-20T12:30:51;-2.40;99.90
14985;DHT22;7588;62.368;25.902;2022-12-20T12:33:27;-2.40;99.90
14985;DHT22;7588;62.368;25.902;2022-12-20T12:41:21;-2.50;99.90
14985;DHT22;7588;62.368;25.902;2022-12-20T12:44:41;-2.50;99.90
14985;DHT22;7588;62.368;25.902;2022-12-20T12:46:40;-2.60;99.90
14985;DHT22;7588;62.368;25.902;2022-12-20T12:49:21;-2.60;99.90
14985;DHT22;7588;62.368;25.902;2022-12-20T12:51:52;-2.60;99.90
14985;DHT22;7588;62.368;25.902;2022-12-20T12:54:39;-2.60;99.90
14985;DHT22;7588;62.368;25.902;2022-12-20T12:57:17;-2.60;99.90
14985;DHT22;7588;62.368;25.902;2022-12-20T12:59:45;-2.60;99.90
14985;DHT22;7588;62.368;25.902;2022-12-20T13:04:59;-2.60;99.90
14985;DHT22;7588;62.368;25.902;2022-12-20T13:10:18;-2.60;99.90
14985;DHT22;7588;62.368;25.902;2022-12-20T13:17:59;-2.60;99.90
14985;DHT22;7588;62.368;25.902;2022-12-20T13:20:31;-2.60;99.90
14985;DHT22;7588;62.368;25.902;2022-12-20T13:25:41;-2.70;99.90
14985;DHT22;7588;62.368;25.902;2022-12-20T13:41:33;-2.70;99.90
14985;DHT22;7588;62.368;25.902;2022-12-20T13:44:39;-2.70;99.90
14985;DHT22;7588;62.368;25.902;2022-12-20T13:49:46;-2.70;99.90
14985;DHT22;7588;62.368;25.902;2022-12-20T13:52:26;-2.80;99.90
14985;DHT22;7588;62.368;25.902;2022-12-20T13:54:56;-2.80;99.90
14985;DHT22;7588;62.368;25.902;2022-12-20T13:57:32;-2.80;99.90
14985;DHT22;7588;62.368;25.902;2022-12-20T14:00:05;-2.80;99.90
14985;DHT22;7588;62.368;25.902;2022-12-20T14:02:42;-2.80;99.90
14985;DHT22;7588;62.368;25.902;2022-12-20T14:05:20;-2.80;99.90
14985;DHT22;7588;62.368;25.902;2022-12-20T14:07:50;-2.80;99.90
14985;DHT22;7588;62.368;25.902;2022-12-20T14:10:23;-2.90;99.90
14985;DHT22;7588;62.368;25.902;2022-12-20T14:12:50;-2.90;99.90
14985;DHT22;7588;62.368;25.902;2022-12-20T14:15:25;-2.90;99.90
14985;DHT22;7588;62.368;25.902;2022-12-20T14:17:51;-2.90;99.90
14985;DHT22;7588;62.368;25.902;2022-12-20T14:20:29;-2.90;99.90
14985;DHT22;7588;62.368;25.902;2022-12-20T14:23:13;-2.90;99.90
14985;DHT22;7588;62.368;25.902;2022-12-20T14:25:45;-2.80;99.90
14985;DHT22;7588;62.368;25.902;2022-12-20T14:28:33;-2.90;99.90
14985;DHT22;7588;62.368;25.902;2022-12-20T14:31:01;-2.90;99.90
14985;DHT22;7588;62.368;25.902;2022-12-20T14:33:38;-2.90;99.90
14985;DHT22;7588;62.368;25.902;2022-12-20T14:38:48;-2.90;99.90
14985;DHT22;7588;62.368;25.902;2022-12-20T14:41:34;-3.00;99.90
14985;DHT22;7588;62.368;25.902;2022-12-20T14:44:14;-3.00;99.90
14985;DHT22;7588;62.368;25.902;2022-12-20T14:46:47;-3.00;99.90
14985;DHT22;7588;62.368;25.902;2022-12-20T14:52:36;-2.90;99.90
14985;DHT22;7588;62.368;25.902;2022-12-20T14:55:06;-2.90;99.90
14985;DHT22;7588;62.368;25.902;2022-12-20T15:05:36;-3.00;99.90
14985;DHT22;7588;62.368;25.902;2022-12-20T15:13:46;-2.90;99.90
14985;DHT22;7588;62.368;25.902;2022-12-20T15:16:25;-3.00;99.90
14985;DHT22;7588;62.368;25.902;2022-12-20T15:18:57;-2.90;99.90
14985;DHT22;7588;62.368;25.902;2022-12-20T15:21:35;-3.00;99.90
14985;DHT22;7588;62.368;25.902;2022-12-20T15:24:04;-3.00;99.90
14985;DHT22;7588;62.368;25.902;2022-12-20T15:26:33;-3.00;99.90
14985;DHT22;7588;62.368;25.902;2022-12-20T15:28:59;-3.00;99.90
14985;DHT22;7588;62.368;25.902;2022-12-20T15:31:27;-3.00;99.90
14985;DHT22;7588;62.368;25.902;2022-12-20T15:33:53;-2.90;99.90
14985;DHT22;7588;62.368;25.902;2022-12-20T15:36:24;-2.90;99.90
14985;DHT22;7588;62.368;25.902;2022-12-20T15:38:54;-2.90;99.90
14985;DHT22;7588;62.368;25.902;2022-12-20T15:41:26;-3.00;99.90
14985;DHT22;7588;62.368;25.902;2022-12-20T15:44:09;-3.00;99.90
14985;DHT22;7588;62.368;25.902;2022-12-20T15:46:36;-3.00;99.90
14985;DHT22;7588;62.368;25.902;2022-12-20T15:49:02;-3.00;99.90
14985;DHT22;7588;62.368;25.902;2022-12-20T15:51:31;-3.00;99.90
14985;DHT22;7588;62.368;25.902;2022-12-20T15:53:58;-3.00;99.90
14985;DHT22;7588;62.368;25.902;2022-12-20T15:56:25;-3.00;99.90
14985;DHT22;7588;62.368;25.902;2022-12-20T15:58:55;-3.00;99.90
14985;DHT22;7588;62.368;25.902;2022-12-20T16:01:32;-3.10;99.90
14985;DHT22;7588;62.368;25.902;2022-12-20T16:03:59;-3.00;99.90
14985;DHT22;7588;62.368;25.902;2022-12-20T16:06:25;-3.10;99.90
14985;DHT22;7588;62.368;25.902;2022-12-20T16:08:50;-3.00;99.90
14985;DHT22;7588;62.368;25.902;2022-12-20T16:11:24;-3.10;99.90
14985;DHT22;7588;62.368;25.902;2022-12-20T16:13:52;-3.00;99.90
14985;DHT22;7588;62.368;25.902;2022-12-20T16:16:24;-3.00;99.90
14985;DHT22;7588;62.368;25.902;2022-12-20T16:18:50;-3.00;99.90
14985;DHT22;7588;62.368;25.902;2022-12-20T16:21:25;-3.00;99.90
14985;DHT22;7588;62.368;25.902;2022-12-20T16:23:52;-3.10;99.90
14985;DHT22;7588;62.368;25.902;2022-12-20T16:26:20;-3.10;99.90
14985;DHT22;7588;62.368;25.902;2022-12-20T16:28:46;-3.10;99.90
14985;DHT22;7588;62.368;25.902;2022-12-20T16:31:22;-3.00;99.90
14985;DHT22;7588;62.368;25.902;2022-12-20T16:33:49;-3.10;99.90
14985;DHT22;7588;62.368;25.902;2022-12-20T16:36:15;-3.10;99.90
14985;DHT22;7588;62.368;25.902;2022-12-20T16:38:41;-3.00;99.90
14985;DHT22;7588;62.368;25.902;2022-12-20T16:41:18;-3.00;99.90
14985;DHT22;7588;62.368;25.902;2022-12-20T16:43:45;-3.00;99.90
14985;DHT22;7588;62.368;25.902;2022-12-20T16:46:13;-3.00;99.90
14985;DHT22;7588;62.368;25.902;2022-12-20T16:48:40;-3.00;99.90
14985;DHT22;7588;62.368;25.902;2022-12-20T16:53:47;-3.00;99.90
14985;DHT22;7588;62.368;25.902;2022-12-20T16:56:14;-3.00;99.90
14985;DHT22;7588;62.368;25.902;2022-12-20T16:58:39;-3.10;99.90
14985;DHT22;7588;62.368;25.902;2022-12-20T17:01:17;-3.10;99.90
14985;DHT22;7588;62.368;25.902;2022-12-20T17:03:44;-3.10;99.90
14985;DHT22;7588;62.368;25.902;2022-12-20T17:06:12;-3.00;99.90
14985;DHT22;7588;62.368;25.902;2022-12-20T17:08:38;-3.00;99.90
14985;DHT22;7588;62.368;25.902;2022-12-20T17:11:28;-3.00;99.90
14985;DHT22;7588;62.368;25.902;2022-12-20T17:13:55;-3.00;99.90
14985;DHT22;7588;62.368;25.902;2022-12-20T17:16:22;-3.10;99.90
14985;DHT22;7588;62.368;25.902;2022-12-20T17:18:50;-3.10;99.90
14985;DHT22;7588;62.368;25.902;2022-12-20T17:21:37;-3.10;99.90
14985;DHT22;7588;62.368;25.902;2022-12-20T17:24:03;-3.10;99.90
14985;DHT22;7588;62.368;25.902;2022-12-20T17:26:31;-3.10;99.90
14985;DHT22;7588;62.368;25.902;2022-12-20T17:28:57;-3.10;99.90
14985;DHT22;7588;62.368;25.902;2022-12-20T17:31:54;-3.10;99.90
14985;DHT22;7588;62.368;25.902;2022-12-20T17:34:25;-3.10;99.90
14985;DHT22;7588;62.368;25.902;2022-12-20T17:36:53;-3.10;99.90
14985;DHT22;7588;62.368;25.902;2022-12-20T17:39:20;-3.10;99.90
14985;DHT22;7588;62.368;25.902;2022-12-20T17:41:46;-3.10;99.90
14985;DHT22;7588;62.368;25.902;2022-12-20T17:44:18;-3.10;99.90
14985;DHT22;7588;62.368;25.902;2022-12-20T17:46:44;-3.10;99.90
14985;DHT22;7588;62.368;25.902;2022-12-20T17:49:10;-3.10;99.90
14985;DHT22;7588;62.368;25.902;2022-12-20T17:51:35;-3.10;99.90
14985;DHT22;7588;62.368;25.902;2022-12-20T17:54:01;-3.00;99.90
14985;DHT22;7588;62.368;25.902;2022-12-20T17:56:31;-3.00;99.90
14985;DHT22;7588;62.368;25.902;2022-12-20T17:58:58;-3.00;99.90
14985;DHT22;7588;62.368;25.902;2022-12-20T18:01:32;-3.00;99.90
14985;DHT22;7588;62.368;25.902;2022-12-20T18:04:00;-3.10;99.90
14985;DHT22;7588;62.368;25.902;2022-12-20T18:06:28;-3.00;99.90